Terminal Aerodrome Forecast
Issued by NWS

Home | Current Version | Previous Version | Text Only | Print | Product List | Glossary On
Versions: 1 2 3 4 5 6 7 8 9 10 11 12 13 14 15 16 17 18
000
FTUS46 KSEW 030500
TAFBFI
TAF
KBFI 030520Z 0306/0406 19006KT P6SM BKN035 OVC060
     FM030800 17006KT P6SM BKN020 OVC035
     FM031900 25005KT P6SM SCT035 BKN060
     FM032200 28005KT P6SM FEW035 SCT060 BKN150=

USA.gov is the U.S. government's official web portal to all federal, state and local government web resources and services.